Time;durP1;ratioP1;P1;durP2;ratioP2;P2;SDS_P1;SDS_P2;PMS_P1;PMS_P2;Temp;Humidity;BMP_temperature;BMP_pressure;BME280_temperature;BME280_humidity;BME280_pressure;Samples;Min_cycle;Max_cycle;Signal;HPM_P1;HPM_P2
2023/10/04 00:00:21;;;;;;;9.00;1.70;;;;;;;12.86;82.66;99320.35;109516;1252;72833;-62
2023/10/04 00:03:34;;;;;;;8.40;1.80;;;;;;;12.81;83.15;99324.30;109406;1252;58834;-63
2023/10/04 00:06:22;;;;;;;7.80;1.80;;;;;;;12.71;83.84;99324.53;109494;1252;60617;-62
2023/10/04 00:09:10;;;;;;;7.10;1.70;;;;;;;12.61;84.35;99324.77;109418;1253;71824;-63
2023/10/04 00:11:59;;;;;;;8.00;1.90;;;;;;;12.50;85.06;99319.83;108674;1252;1002365;-62
2023/10/04 00:14:56;;;;;;;8.90;1.90;;;;;;;12.42;85.87;99326.97;109545;1252;73334;-62
2023/10/04 00:18:00;;;;;;;7.50;1.80;;;;;;;12.32;86.66;99332.52;109313;1253;60770;-63
2023/10/04 00:20:50;;;;;;;9.60;1.90;;;;;;;12.24;88.05;99336.36;109317;1254;60217;-63
2023/10/04 00:23:41;;;;;;;10.30;1.70;;;;;;;12.16;89.17;99343.21;109284;1254;74075;-63
2023/10/04 00:26:38;;;;;;;6.70;1.50;;;;;;;12.07;89.76;99350.91;109411;1253;66435;-62
2023/10/04 00:29:25;;;;;;;7.80;1.60;;;;;;;12.04;90.49;99362.27;109368;1254;72668;-63
2023/10/04 00:32:13;;;;;;;7.20;1.80;;;;;;;12.02;91.32;99379.58;109356;1254;59552;-61
2023/10/04 00:35:09;;;;;;;9.00;1.70;;;;;;;11.97;91.99;99378.77;109386;1254;59973;-63
2023/10/04 00:37:57;;;;;;;7.60;1.70;;;;;;;12.01;92.46;99398.66;109302;1254;72628;-62
2023/10/04 00:40:47;;;;;;;8.60;1.70;;;;;;;12.05;94.17;99417.85;109218;1255;66455;-63
2023/10/04 00:43:51;;;;;;;9.70;1.90;;;;;;;12.06;95.60;99419.88;109331;1255;72529;-63
2023/10/04 00:46:47;;;;;;;11.90;2.00;;;;;;;12.04;98.39;99424.51;109348;1254;59625;-62
2023/10/04 00:49:35;;;;;;;10.40;1.90;;;;;;;12.00;99.02;99420.05;109320;1254;60523;-64
2023/10/04 00:52:22;;;;;;;7.70;1.80;;;;;;;11.96;99.65;99413.70;109506;1253;73309;-62
2023/10/04 00:55:11;;;;;;;10.60;1.90;;;;;;;11.93;99.57;99404.35;109559;1252;69115;-63
2023/10/04 00:58:01;;;;;;;9.10;1.70;;;;;;;11.90;99.97;99409.19;109554;1252;72406;-63
2023/10/04 01:00:49;;;;;;;8.30;2.00;;;;;;;11.88;100.00;99414.16;109539;1252;59282;-63
2023/10/04 01:03:37;;;;;;;9.20;2.00;;;;;;;11.84;100.00;99423.88;109531;1252;60276;-64
2023/10/04 01:06:25;;;;;;;7.20;1.70;;;;;;;11.78;100.00;99430.58;109404;1252;73064;-63
2023/10/04 01:09:13;;;;;;;9.00;1.60;;;;;;;11.71;100.00;99430.56;109525;1252;66458;-63
2023/10/04 01:12:01;;;;;;;7.70;1.40;;;;;;;11.66;100.00;99430.48;109523;1252;72466;-65
2023/10/04 01:14:53;;;;;;;8.80;1.80;;;;;;;11.61;100.00;99418.82;109545;1252;59643;-66
2023/10/04 01:17:40;;;;;;;7.30;1.60;;;;;;;11.56;100.00;99431.69;109518;1252;59419;-64
2023/10/04 01:20:30;;;;;;;7.50;1.30;;;;;;;11.54;100.00;99430.88;109447;1253;73841;-64
2023/10/04 01:23:18;;;;;;;6.90;1.40;;;;;;;11.54;100.00;99418.55;109449;1253;67757;-64
2023/10/04 01:26:09;;;;;;;10.30;1.50;;;;;;;11.55;100.00;99420.76;109423;1253;72419;-63
2023/10/04 01:29:02;;;;;;;7.30;1.60;;;;;;;11.54;100.00;99425.52;109404;1253;60256;-62
2023/10/04 01:31:51;;;;;;;6.90;1.40;;;;;;;11.51;100.00;99438.41;109525;1252;60005;-63
2023/10/04 01:34:39;;;;;;;9.30;2.00;;;;;;;11.51;100.00;99441.63;109591;1253;72825;-64
2023/10/04 01:37:30;;;;;;;7.40;2.20;;;;;;;11.49;100.00;99447.13;109538;1253;67013;-63
2023/10/04 01:40:22;;;;;;;6.40;1.50;;;;;;;11.49;100.00;99443.72;109381;1253;72460;-64
2023/10/04 01:43:15;;;;;;;8.10;1.70;;;;;;;11.51;100.00;99437.73;109521;1252;58153;-65
2023/10/04 01:46:04;;;;;;;10.40;2.00;;;;;;;11.51;100.00;99437.52;109398;1253;59206;-63
2023/10/04 01:48:54;;;;;;;10.10;1.90;;;;;;;11.52;100.00;99448.50;109547;1252;73991;-63
2023/10/04 01:51:42;;;;;;;8.80;2.10;;;;;;;11.52;100.00;99448.67;109566;1252;68717;-64
2023/10/04 01:54:34;;;;;;;8.00;1.80;;;;;;;11.51;100.00;99455.44;109457;1252;72706;-63
2023/10/04 01:57:22;;;;;;;9.70;1.70;;;;;;;11.51;100.00;99462.26;109521;1252;59218;-64
2023/10/04 02:00:14;;;;;;;8.30;1.60;;;;;;;11.52;100.00;99458.72;109496;1253;61088;-63
2023/10/04 02:03:03;;;;;;;7.60;1.90;;;;;;;11.53;100.00;99458.83;109532;1252;71591;-62
2023/10/04 02:05:58;;;;;;;7.80;1.80;;;;;;;11.54;100.00;99463.38;109489;1253;67574;-63
2023/10/04 02:08:46;;;;;;;6.90;1.40;;;;;;;11.53;100.00;99468.39;109449;1253;72670;-63
2023/10/04 02:11:36;;;;;;;6.20;1.40;;;;;;;11.51;100.00;99470.07;109471;1252;59692;-64
2023/10/04 02:14:25;;;;;;;8.20;1.50;;;;;;;11.45;100.00;99473.08;109488;1253;60510;-62
2023/10/04 02:17:17;;;;;;;7.00;1.60;;;;;;;11.47;100.00;99483.70;109568;1252;73044;-63
2023/10/04 02:20:09;;;;;;;6.80;1.60;;;;;;;11.46;100.00;99485.05;109476;1252;67873;-63
2023/10/04 02:23:00;;;;;;;10.30;2.10;;;;;;;11.47;100.00;99487.13;109527;1252;71563;-63
2023/10/04 02:25:48;;;;;;;8.70;1.70;;;;;;;11.47;100.00;99491.33;109393;1253;58298;-63
2023/10/04 02:28:36;;;;;;;7.70;1.90;;;;;;;11.46;100.00;99496.44;109552;1252;61098;-64
2023/10/04 02:31:24;;;;;;;9.10;2.00;;;;;;;11.43;100.00;99499.88;109486;1255;73805;-63
2023/10/04 02:34:12;;;;;;;8.80;2.00;;;;;;;11.41;100.00;99506.08;109577;1253;67829;-63
2023/10/04 02:37:00;;;;;;;6.70;1.50;;;;;;;11.41;100.00;99503.95;109521;1252;71156;-62
2023/10/04 02:39:48;;;;;;;9.80;1.70;;;;;;;11.41;100.00;99501.14;109376;1253;60806;-63
2023/10/04 02:42:35;;;;;;;11.80;2.60;;;;;;;11.40;100.00;99508.10;109569;1252;60476;-63
2023/10/04 02:45:24;;;;;;;14.00;1.90;;;;;;;11.35;100.00;99491.55;109371;1253;72581;-64
2023/10/04 02:48:13;;;;;;;7.50;1.80;;;;;;;11.39;100.00;99496.48;109524;1253;66679;-64
2023/10/04 02:51:01;;;;;;;7.20;1.90;;;;;;;11.39;100.00;99498.31;109496;1252;73973;-63
2023/10/04 02:53:49;;;;;;;9.70;1.70;;;;;;;11.38;100.00;99507.61;109469;1252;59911;-62
2023/10/04 02:56:45;;;;;;;8.40;1.50;;;;;;;11.37;100.00;99507.56;109492;1253;60118;-63
2023/10/04 02:59:34;;;;;;;7.90;1.60;;;;;;;11.34;100.00;99508.14;109464;1253;72885;-63
2023/10/04 03:02:23;;;;;;;10.10;1.80;;;;;;;11.32;100.00;99509.58;109499;1252;66299;-66
2023/10/04 03:05:18;;;;;;;6.20;1.40;;;;;;;11.29;100.00;99512.20;109403;1253;73794;-63
2023/10/04 03:08:08;;;;;;;9.10;1.90;;;;;;;11.28;100.00;99515.15;109530;1252;59654;-67
2023/10/04 03:10:56;;;;;;;8.20;1.60;;;;;;;11.26;100.00;99514.71;109498;1252;61439;-64
2023/10/04 03:13:47;;;;;;;8.70;1.70;;;;;;;11.30;100.00;99516.16;109547;1252;73828;-63
2023/10/04 03:16:34;;;;;;;7.90;1.80;;;;;;;11.33;100.00;99515.55;109479;1253;67014;-66
2023/10/04 03:19:22;;;;;;;9.60;1.80;;;;;;;11.34;100.00;99518.80;109433;1253;73809;-64
2023/10/04 03:22:13;;;;;;;8.10;1.40;;;;;;;11.37;100.00;99524.81;109419;1253;58716;-63
2023/10/04 03:25:01;;;;;;;9.90;1.80;;;;;;;11.37;100.00;99527.45;109461;1253;59098;-64
2023/10/04 03:27:49;;;;;;;10.30;1.90;;;;;;;11.37;100.00;99530.25;109350;1253;73751;-63
2023/10/04 03:30:37;;;;;;;9.80;1.70;;;;;;;11.35;100.00;99531.81;109553;1252;67417;-65
2023/10/04 03:33:27;;;;;;;10.60;1.90;;;;;;;11.32;100.00;99533.22;109439;1252;72516;-64
2023/10/04 03:36:18;;;;;;;10.70;1.80;;;;;;;11.29;100.00;99533.66;109470;1253;59548;-63
2023/10/04 03:39:10;;;;;;;10.00;1.50;;;;;;;11.28;100.00;99548.85;109600;1252;60489;-63
2023/10/04 03:42:00;;;;;;;8.60;2.00;;;;;;;11.28;100.00;99547.02;109505;1253;74090;-63
2023/10/04 03:44:49;;;;;;;9.30;1.70;;;;;;;11.29;100.00;99551.91;109403;1252;67620;-63
2023/10/04 03:47:39;;;;;;;13.20;2.00;;;;;;;11.31;100.00;99553.52;109584;1252;72501;-63
2023/10/04 03:50:27;;;;;;;7.40;1.30;;;;;;;11.34;100.00;99547.79;109348;1253;59596;-62
2023/10/04 03:53:20;;;;;;;8.90;1.50;;;;;;;11.35;100.00;99549.65;109384;1252;58905;-63
2023/10/04 03:56:10;;;;;;;11.80;2.60;;;;;;;11.36;100.00;99557.54;109426;1252;73271;-63
2023/10/04 03:58:58;;;;;;;8.10;1.80;;;;;;;11.36;100.00;99557.34;109377;1252;67765;-64
2023/10/04 04:01:45;;;;;;;6.30;1.40;;;;;;;11.34;100.00;99557.33;109406;1252;71051;-65
2023/10/04 04:04:33;;;;;;;9.00;1.70;;;;;;;11.34;100.00;99553.23;109500;1252;59417;-63
2023/10/04 04:07:22;;;;;;;10.80;1.70;;;;;;;11.37;100.00;99552.06;109323;1252;59238;-63
2023/10/04 04:10:12;;;;;;;7.40;1.70;;;;;;;11.39;100.00;99551.34;109449;1252;74042;-64
2023/10/04 04:13:00;;;;;;;7.30;1.50;;;;;;;11.38;100.00;99560.69;109468;1252;68915;-63
2023/10/04 04:15:48;;;;;;;9.90;1.60;;;;;;;11.39;100.00;99561.91;109567;1252;71965;-65
2023/10/04 04:18:37;;;;;;;8.40;1.40;;;;;;;11.39;100.00;99568.26;109373;1253;58263;-66
2023/10/04 04:21:33;;;;;;;10.30;1.60;;;;;;;11.40;100.00;99574.00;109451;1253;59197;-64
2023/10/04 04:24:22;;;;;;;8.10;1.60;;;;;;;11.41;100.00;99575.52;109375;1253;73189;-68
2023/10/04 04:27:09;;;;;;;9.40;1.80;;;;;;;11.44;100.00;99582.23;109535;1252;68876;-63
2023/10/04 04:29:57;;;;;;;8.30;1.80;;;;;;;11.47;100.00;99579.35;109487;1253;72348;-63
2023/10/04 04:32:56;;;;;;;9.40;2.00;;;;;;;11.48;100.00;99581.48;109527;1252;60538;-64
2023/10/04 04:35:51;;;;;;;7.20;1.60;;;;;;;11.51;100.00;99580.52;109513;1252;60320;-64
2023/10/04 04:38:40;;;;;;;7.40;1.40;;;;;;;11.54;100.00;99583.60;109549;1252;73633;-65
2023/10/04 04:41:29;;;;;;;7.90;1.60;;;;;;;11.57;100.00;99579.30;109386;1253;67679;-65
2023/10/04 04:44:21;;;;;;;6.90;1.50;;;;;;;11.57;100.00;99583.33;109522;1252;71406;-65
2023/10/04 04:47:10;;;;;;;6.50;1.30;;;;;;;11.58;100.00;99587.85;109334;1252;59345;-64
2023/10/04 04:49:59;;;;;;;11.00;1.70;;;;;;;11.57;100.00;99583.34;109430;1253;59824;-65
2023/10/04 04:52:47;;;;;;;7.20;1.50;;;;;;;11.56;100.00;99584.52;109439;1252;71870;-65
2023/10/04 04:55:41;;;;;;;8.00;1.60;;;;;;;11.52;100.00;99587.94;109541;1253;66401;-63
2023/10/04 04:58:30;;;;;;;6.90;1.50;;;;;;;11.48;100.00;99601.61;109320;1253;71322;-62
2023/10/04 05:01:18;;;;;;;6.90;1.40;;;;;;;11.44;100.00;99611.91;109428;1253;58079;-65
2023/10/04 05:04:08;;;;;;;7.90;1.80;;;;;;;11.40;100.00;99615.09;109415;1253;58014;-64
2023/10/04 05:06:56;;;;;;;8.80;1.80;;;;;;;11.37;100.00;99616.17;109496;1252;73052;-64
2023/10/04 05:09:44;;;;;;;7.20;1.60;;;;;;;11.35;100.00;99619.78;109508;1252;68792;-65
2023/10/04 05:12:32;;;;;;;8.00;1.60;;;;;;;11.34;100.00;99615.43;109505;1252;72736;-65
2023/10/04 05:15:24;;;;;;;9.50;1.30;;;;;;;11.33;100.00;99618.15;109461;1252;60544;-62
2023/10/04 05:18:17;;;;;;;6.70;1.50;;;;;;;11.34;100.00;99613.47;109532;1252;60418;-65
2023/10/04 05:21:05;;;;;;;8.40;1.80;;;;;;;11.37;100.00;99618.02;109308;1253;73277;-67
2023/10/04 05:23:56;;;;;;;8.30;2.00;;;;;;;11.39;100.00;99619.77;109273;1253;66411;-65
2023/10/04 05:26:44;;;;;;;7.00;1.40;;;;;;;11.39;100.00;99624.89;109498;1252;72890;-66
2023/10/04 05:29:32;;;;;;;8.90;1.70;;;;;;;11.37;100.00;99612.14;109429;1253;57960;-63
2023/10/04 05:32:21;;;;;;;6.60;1.60;;;;;;;11.40;100.00;99610.45;109473;1252;60050;-63
2023/10/04 05:35:14;;;;;;;9.40;1.80;;;;;;;11.45;100.00;99608.42;109517;1252;72822;-63
2023/10/04 05:38:06;;;;;;;7.20;1.60;;;;;;;11.50;100.00;99603.87;109488;1252;67830;-64
2023/10/04 05:40:54;;;;;;;7.70;1.70;;;;;;;11.55;100.00;99598.11;109509;1252;70400;-65
2023/10/04 05:43:44;;;;;;;6.90;1.60;;;;;;;11.58;100.00;99604.04;109483;1254;59653;-65
2023/10/04 05:46:32;;;;;;;11.40;2.20;;;;;;;11.63;100.00;99606.81;109556;1252;60086;-64
2023/10/04 05:49:20;;;;;;;8.20;1.90;;;;;;;11.72;100.00;99616.88;109461;1252;74042;-67
2023/10/04 05:52:07;;;;;;;7.70;1.60;;;;;;;11.78;100.00;99620.93;109483;1252;65814;-66
2023/10/04 05:54:55;;;;;;;11.20;2.00;;;;;;;11.92;100.00;99634.09;109487;1252;72909;-65
2023/10/04 05:57:50;;;;;;;6.90;1.50;;;;;;;11.95;100.00;99641.55;109443;1253;58119;-68
2023/10/04 06:00:42;;;;;;;10.70;1.90;;;;;;;12.00;100.00;99644.66;109432;1253;58936;-68
2023/10/04 06:03:46;;;;;;;8.20;1.80;;;;;;;12.11;100.00;99653.39;109313;1252;72854;-65
2023/10/04 06:06:35;;;;;;;9.50;1.80;;;;;;;12.09;100.00;99651.29;109485;1253;67883;-64
2023/10/04 06:09:29;;;;;;;10.10;2.40;;;;;;;12.06;100.00;99652.45;109380;1253;72587;-66
2023/10/04 06:12:17;;;;;;;9.20;1.70;;;;;;;12.03;100.00;99655.68;109560;1251;58032;-64
2023/10/04 06:15:10;;;;;;;8.90;1.50;;;;;;;12.03;100.00;99649.98;109620;1251;58792;-64
2023/10/04 06:17:59;;;;;;;8.60;1.80;;;;;;;12.05;100.00;99654.81;109596;1251;74006;-64
2023/10/04 06:20:49;;;;;;;7.20;1.70;;;;;;;12.07;100.00;99651.84;109589;1251;66605;-64
2023/10/04 06:23:36;;;;;;;7.50;1.40;;;;;;;12.12;99.91;99655.41;109574;1251;72766;-64
2023/10/04 06:26:24;;;;;;;9.80;1.80;;;;;;;12.18;99.41;99653.09;109584;1251;58379;-64
2023/10/04 06:29:12;;;;;;;8.60;1.70;;;;;;;12.30;99.34;99654.70;109517;1251;58366;-65
2023/10/04 06:31:59;;;;;;;7.10;1.60;;;;;;;12.40;98.34;99656.09;109618;1251;70932;-66
2023/10/04 06:34:47;;;;;;;9.10;2.40;;;;;;;12.43;98.29;99653.14;109619;1251;66437;-65
2023/10/04 06:37:36;;;;;;;8.80;1.80;;;;;;;12.46;97.66;99653.27;109531;1251;72309;-67
2023/10/04 06:40:26;;;;;;;7.50;1.60;;;;;;;12.45;97.29;99657.75;109544;1251;59679;-63
2023/10/04 06:43:14;;;;;;;6.90;1.50;;;;;;;12.51;97.20;99660.79;109657;1251;58783;-66
2023/10/04 06:46:02;;;;;;;8.30;1.70;;;;;;;12.61;96.70;99664.84;109473;1254;71421;-64
2023/10/04 06:48:51;;;;;;;9.70;2.10;;;;;;;12.77;96.31;99673.16;109495;1253;67707;-64
2023/10/04 06:51:39;;;;;;;9.60;1.70;;;;;;;12.83;95.32;99671.24;109507;1253;72512;-62
2023/10/04 06:54:26;;;;;;;8.90;1.70;;;;;;;13.09;94.75;99682.33;109541;1254;59341;-65
2023/10/04 06:57:14;;;;;;;7.50;2.00;;;;;;;13.04;93.84;99675.50;109474;1253;58723;-66
2023/10/04 07:00:12;;;;;;;12.00;2.10;;;;;;;13.34;92.76;99686.55;109501;1253;71676;-65
2023/10/04 07:03:01;;;;;;;8.10;1.90;;;;;;;13.79;90.53;99681.91;109487;1252;68580;-65
2023/10/04 07:05:49;;;;;;;9.00;1.90;;;;;;;13.87;89.46;99685.75;109509;1252;72761;-64
2023/10/04 07:08:37;;;;;;;7.30;1.60;;;;;;;14.07;88.48;99694.54;109471;1253;57701;-62
2023/10/04 07:11:25;;;;;;;9.50;1.80;;;;;;;14.10;87.54;99703.19;109549;1253;58719;-63
2023/10/04 07:14:14;;;;;;;7.80;2.00;;;;;;;13.87;87.55;99704.68;109476;1252;72688;-63
2023/10/04 07:17:02;;;;;;;8.80;1.80;;;;;;;13.74;87.96;99705.95;109584;1252;68649;-63
2023/10/04 07:19:49;;;;;;;8.00;1.60;;;;;;;13.61;88.31;99703.43;109482;1253;72317;-63
2023/10/04 07:22:38;;;;;;;10.30;1.70;;;;;;;13.51;89.28;99706.20;109501;1254;60818;-62
2023/10/04 07:25:28;;;;;;;7.70;1.60;;;;;;;13.55;89.77;99717.20;109477;1253;61326;-64
2023/10/04 07:28:16;;;;;;;8.60;1.60;;;;;;;13.46;89.03;99719.11;109521;1252;73056;-65
2023/10/04 07:31:04;;;;;;;9.10;1.80;;;;;;;13.40;89.76;99727.73;109555;1253;67682;-66
2023/10/04 07:33:51;;;;;;;10.00;1.90;;;;;;;13.41;89.55;99723.34;109547;1252;72742;-65
2023/10/04 07:36:42;;;;;;;8.10;1.60;;;;;;;13.48;89.01;99727.32;109487;1253;58578;-67
2023/10/04 07:39:32;;;;;;;10.20;1.90;;;;;;;13.49;88.87;99729.55;109564;1252;58610;-65
2023/10/04 07:42:21;;;;;;;8.40;1.90;;;;;;;13.52;88.71;99728.74;109566;1252;73101;-64
2023/10/04 07:45:10;;;;;;;9.40;2.10;;;;;;;13.87;88.30;99734.09;109558;1253;68653;-66
2023/10/04 07:47:58;;;;;;;8.30;1.70;;;;;;;15.28;82.96;99729.02;109457;1254;72474;-67
2023/10/04 07:50:46;;;;;;;9.70;1.70;;;;;;;15.29;79.60;99730.20;109334;1252;57302;-64
2023/10/04 07:53:35;;;;;;;8.80;1.60;;;;;;;15.16;79.17;99735.65;109455;1253;59977;-67
2023/10/04 07:56:23;;;;;;;7.60;1.80;;;;;;;15.23;80.12;99736.87;109337;1256;73081;-66
2023/10/04 07:59:10;;;;;;;8.20;1.80;;;;;;;15.23;78.60;99734.63;109602;1253;67049;-66
2023/10/04 08:01:58;;;;;;;9.20;2.00;;;;;;;15.13;78.75;99742.02;109560;1252;72394;-65
2023/10/04 08:04:48;;;;;;;8.50;1.80;;;;;;;15.18;78.64;99751.17;109563;1252;57983;-66
2023/10/04 08:07:37;;;;;;;9.20;1.80;;;;;;;15.48;77.50;99755.02;109526;1253;60021;-67
2023/10/04 08:10:29;;;;;;;11.30;2.40;;;;;;;15.58;76.99;99757.95;109526;1253;72820;-65
2023/10/04 08:13:17;;;;;;;7.30;1.60;;;;;;;15.50;76.68;99760.36;109528;1252;66494;-65
2023/10/04 08:16:04;;;;;;;7.70;1.90;;;;;;;15.39;77.22;99760.98;109469;1253;72802;-66
2023/10/04 08:18:56;;;;;;;10.70;1.90;;;;;;;15.32;77.12;99760.45;109542;1252;57378;-65
2023/10/04 08:21:45;;;;;;;10.50;1.70;;;;;;;15.15;76.73;99767.50;109488;1253;59973;-67
2023/10/04 08:24:32;;;;;;;6.40;1.50;;;;;;;15.15;77.43;99776.82;109437;1252;73091;-68
2023/10/04 08:27:20;;;;;;;9.30;2.10;;;;;;;15.22;77.34;99769.92;109333;1253;66595;-66
2023/10/04 08:30:14;;;;;;;8.80;1.70;;;;;;;15.23;77.89;99773.36;109303;1253;73416;-65
2023/10/04 08:33:03;;;;;;;9.00;1.70;;;;;;;15.15;76.58;99775.23;109305;1253;57746;-66
2023/10/04 08:35:51;;;;;;;8.90;1.90;;;;;;;15.16;76.93;99776.55;109503;1252;60346;-65
2023/10/04 08:38:41;;;;;;;8.00;1.80;;;;;;;15.11;77.07;99783.35;109470;1253;73028;-65
2023/10/04 08:41:29;;;;;;;7.60;1.50;;;;;;;15.00;76.40;99783.33;109506;1252;67799;-65
2023/10/04 08:44:16;;;;;;;8.50;1.50;;;;;;;15.03;76.67;99793.47;109570;1252;71145;-66
2023/10/04 08:47:06;;;;;;;9.60;1.90;;;;;;;15.01;76.99;99790.80;109536;1253;58196;-65
2023/10/04 08:49:55;;;;;;;8.90;1.70;;;;;;;14.97;76.64;99799.34;109531;1254;58864;-65
2023/10/04 08:52:46;;;;;;;9.00;1.50;;;;;;;14.90;77.15;99801.71;109495;1253;73754;-63
2023/10/04 08:55:42;;;;;;;8.30;1.60;;;;;;;14.97;77.09;99800.23;109505;1254;67954;-65
2023/10/04 08:58:31;;;;;;;10.70;1.60;;;;;;;15.47;75.52;99799.16;109402;1253;72694;-65
2023/10/04 09:01:21;;;;;;;9.10;1.70;;;;;;;16.24;73.17;99799.45;109435;1255;57875;-67
2023/10/04 09:04:11;;;;;;;8.40;2.00;;;;;;;16.95;69.11;99794.55;109547;1253;59077;-65
2023/10/04 09:06:59;;;;;;;9.50;1.70;;;;;;;17.30;67.72;99807.11;109405;1253;72914;-65
2023/10/04 09:09:47;;;;;;;9.00;1.70;;;;;;;17.24;65.88;99795.57;109594;1253;66328;-64
2023/10/04 09:12:36;;;;;;;8.80;1.70;;;;;;;16.94;67.50;99806.86;109489;1253;73638;-65
2023/10/04 09:15:43;;;;;;;8.30;1.70;;;;;;;16.49;68.39;99809.14;109452;1253;57311;-65
2023/10/04 09:18:31;;;;;;;9.90;2.00;;;;;;;16.44;69.33;99805.07;109536;1253;59137;-65
2023/10/04 09:21:20;;;;;;;7.60;1.80;;;;;;;17.50;66.97;99812.00;109566;1253;71536;-66
2023/10/04 09:24:14;;;;;;;9.20;1.80;;;;;;;18.34;62.52;99807.54;109516;1253;67905;-64
2023/10/04 09:27:02;;;;;;;8.70;1.90;;;;;;;18.25;61.41;99814.48;109322;1253;73742;-66
2023/10/04 09:29:53;;;;;;;9.30;2.10;;;;;;;17.76;61.60;99816.13;109511;1253;57352;-66
2023/10/04 09:32:42;;;;;;;8.40;2.00;;;;;;;17.36;62.78;99816.27;109466;1253;59048;-64
2023/10/04 09:35:44;;;;;;;7.40;2.30;;;;;;;17.95;61.65;99816.40;109560;1254;74214;-65
2023/10/04 09:38:35;;;;;;;7.40;2.30;;;;;;;19.47;55.94;99829.80;109467;1254;66430;-65
2023/10/04 09:41:23;;;;;;;7.10;1.80;;;;;;;20.16;54.00;99822.97;109491;1256;71367;-64
2023/10/04 09:44:29;;;;;;;7.40;1.80;;;;;;;20.27;52.37;99826.19;109509;1253;57738;-65
2023/10/04 09:47:17;;;;;;;7.20;1.70;;;;;;;20.63;52.34;99834.39;109508;1252;60088;-67
2023/10/04 09:50:26;;;;;;;7.90;1.80;;;;;;;20.99;50.83;99832.60;109555;1252;72976;-64
2023/10/04 09:53:14;;;;;;;9.40;1.70;;;;;;;20.74;50.54;99834.48;109522;1252;67738;-65
2023/10/04 09:56:02;;;;;;;6.90;1.70;;;;;;;20.30;51.86;99835.37;109562;1254;71987;-63
2023/10/04 09:58:54;;;;;;;7.00;1.50;;;;;;;19.75;53.39;99830.30;109476;1254;58044;-65
2023/10/04 10:01:42;;;;;;;7.10;1.70;;;;;;;19.12;55.72;99841.72;109443;1254;60127;-64
2023/10/04 10:04:34;;;;;;;8.60;2.10;;;;;;;19.34;55.56;99842.13;109533;1253;73779;-64
2023/10/04 10:07:25;;;;;;;9.40;1.80;;;;;;;19.03;56.68;99847.40;109553;1252;68187;-64
2023/10/04 10:10:16;;;;;;;8.00;1.90;;;;;;;19.06;56.99;99845.63;109435;1253;73471;-65
2023/10/04 10:13:06;;;;;;;7.30;1.90;;;;;;;20.30;54.54;99841.06;109534;1254;57739;-67
2023/10/04 10:15:53;;;;;;;8.50;1.90;;;;;;;20.69;52.03;99846.31;109556;1253;60502;-66
2023/10/04 10:18:42;;;;;;;8.50;2.30;;;;;;;20.87;51.08;99855.85;109555;1254;72731;-64
2023/10/04 10:22:11;;;;;;;7.80;2.00;;;;;;;20.81;50.66;99862.98;109560;1254;67936;-65
2023/10/04 10:24:59;;;;;;;7.50;1.90;;;;;;;21.50;49.32;99866.29;109438;1254;73420;-66
2023/10/04 10:27:49;;;;;;;7.30;1.70;;;;;;;22.34;47.15;99861.95;109525;1254;57319;-68
2023/10/04 10:30:36;;;;;;;9.00;2.10;;;;;;;22.72;45.67;99865.09;109415;1252;60386;-65
2023/10/04 10:33:25;;;;;;;7.50;1.90;;;;;;;22.14;45.80;99871.17;109533;1253;71792;-64
2023/10/04 10:36:24;;;;;;;7.90;1.90;;;;;;;22.56;44.84;99867.14;109466;1257;69316;-64
2023/10/04 10:39:20;;;;;;;9.50;2.20;;;;;;;21.75;46.30;99872.67;109240;1254;72286;-65
2023/10/04 10:42:11;;;;;;;7.50;2.00;;;;;;;20.93;48.55;99875.61;109352;1254;57339;-63
2023/10/04 10:45:28;;;;;;;8.90;2.00;;;;;;;20.97;48.97;99876.17;109327;1253;58950;-67
2023/10/04 10:48:16;;;;;;;9.60;1.90;;;;;;;20.22;50.69;99885.18;109291;1254;72758;-67
2023/10/04 10:51:09;;;;;;;9.10;1.80;;;;;;;19.91;52.58;99889.64;109433;1254;67970;-64
2023/10/04 10:53:56;;;;;;;9.20;2.20;;;;;;;19.44;54.31;99886.70;109413;1254;70968;-63
2023/10/04 10:56:44;;;;;;;8.00;1.70;;;;;;;18.77;56.12;99888.15;109320;1253;57299;-67
2023/10/04 10:59:34;;;;;;;9.10;2.10;;;;;;;18.12;57.95;99889.39;109318;1254;59236;-67
2023/10/04 11:02:26;;;;;;;8.40;1.80;;;;;;;17.60;59.80;99897.89;109122;1253;72313;-66
2023/10/04 11:05:19;;;;;;;10.70;2.20;;;;;;;17.25;62.67;99904.66;109304;1254;67922;-68
2023/10/04 11:08:12;;;;;;;6.60;1.80;;;;;;;17.13;64.22;99901.24;109381;1254;72475;-64
2023/10/04 11:11:00;;;;;;;7.50;1.90;;;;;;;17.27;64.19;99899.19;109454;1256;57801;-65
2023/10/04 11:13:48;;;;;;;9.00;2.10;;;;;;;18.28;61.68;99899.77;109311;1258;59111;-66
2023/10/04 11:16:36;;;;;;;10.80;2.10;;;;;;;18.71;59.00;99899.42;109415;1254;73777;-63
2023/10/04 11:19:24;;;;;;;7.00;1.80;;;;;;;19.21;57.42;99898.75;109463;1254;68824;-66
2023/10/04 11:22:14;;;;;;;8.80;1.80;;;;;;;19.17;56.41;99904.96;109323;1254;71741;-65
2023/10/04 11:25:05;;;;;;;9.10;2.10;;;;;;;18.74;57.07;99902.14;109322;1254;57307;-66
2023/10/04 11:27:54;;;;;;;8.20;1.90;;;;;;;18.94;57.45;99901.67;109298;1254;58749;-66
2023/10/04 11:30:41;;;;;;;9.20;2.40;;;;;;;19.39;56.30;99894.46;109270;1259;71613;-64
2023/10/04 11:33:29;;;;;;;10.50;2.70;;;;;;;19.26;55.40;99894.70;109342;1254;69342;-64
2023/10/04 11:36:22;;;;;;;8.60;2.30;;;;;;;18.79;56.72;99900.84;109323;1254;71395;-66
2023/10/04 11:39:18;;;;;;;8.10;1.70;;;;;;;18.30;58.34;99899.23;109183;1254;58096;-68
2023/10/04 11:42:17;;;;;;;8.80;2.20;;;;;;;17.65;59.73;99901.45;109457;1254;60363;-66
2023/10/04 11:45:24;;;;;;;7.40;2.00;;;;;;;17.16;62.26;99895.77;109440;1255;72807;-65
2023/10/04 11:48:12;;;;;;;10.00;2.30;;;;;;;16.79;65.15;99902.19;109447;1254;67918;-64
2023/10/04 11:51:01;;;;;;;10.00;2.30;;;;;;;16.49;67.59;99913.22;109280;1254;72516;-69
2023/10/04 11:53:54;;;;;;;9.10;2.00;;;;;;;16.06;70.36;99921.90;109338;1254;57379;-63
2023/10/04 11:56:42;;;;;;;9.90;2.00;;;;;;;15.68;72.45;99927.77;109450;1254;58729;-64
2023/10/04 11:59:30;;;;;;;9.70;2.30;;;;;;;15.46;74.65;99921.54;109286;1254;72887;-66
2023/10/04 12:02:22;;;;;;;8.10;2.00;;;;;;;15.35;75.62;99914.36;109256;1255;67873;-63
2023/10/04 12:05:11;;;;;;;9.70;2.20;;;;;;;15.48;76.02;99928.15;109459;1254;71128;-65
2023/10/04 12:07:59;;;;;;;8.70;2.10;;;;;;;15.72;75.34;99924.33;109279;1254;58261;-66
2023/10/04 12:10:47;;;;;;;9.70;2.80;;;;;;;16.37;73.41;99920.14;109468;1254;60050;-64
2023/10/04 12:13:34;;;;;;;7.70;2.00;;;;;;;16.88;71.55;99924.48;109287;1254;71473;-66
2023/10/04 12:16:22;;;;;;;9.90;1.90;;;;;;;17.16;70.50;99925.48;109333;1254;69116;-66
2023/10/04 12:19:10;;;;;;;10.50;2.20;;;;;;;17.18;68.98;99918.21;109462;1254;72706;-67
2023/10/04 12:22:02;;;;;;;10.00;1.90;;;;;;;17.18;68.62;99920.11;109215;1254;58755;-66
2023/10/04 12:24:50;;;;;;;9.20;2.50;;;;;;;17.20;68.35;99922.35;109319;1254;58923;-66
2023/10/04 12:27:38;;;;;;;10.90;2.80;;;;;;;17.18;67.67;99927.64;109303;1254;74156;-65
2023/10/04 12:30:30;;;;;;;10.10;2.30;;;;;;;17.27;67.93;99929.27;109261;1254;68159;-70
2023/10/04 12:33:21;;;;;;;10.50;2.20;;;;;;;17.49;68.09;99930.52;109425;1254;72775;-68
2023/10/04 12:36:09;;;;;;;10.10;2.30;;;;;;;17.37;67.47;99931.86;109483;1254;57559;-67
2023/10/04 12:38:56;;;;;;;11.20;2.50;;;;;;;16.95;67.62;99924.14;109354;1254;60064;-67
2023/10/04 12:41:50;;;;;;;13.70;2.80;;;;;;;16.40;67.86;99929.76;109458;1254;72793;-66
2023/10/04 12:44:38;;;;;;;11.80;2.70;;;;;;;16.13;70.88;99934.11;109462;1252;67700;-64
2023/10/04 12:47:25;;;;;;;8.40;2.20;;;;;;;16.15;72.34;99945.52;109374;1253;71787;-66
2023/10/04 12:50:17;;;;;;;10.10;2.30;;;;;;;16.02;72.89;99942.91;109460;1253;58123;-62
2023/10/04 12:53:09;;;;;;;9.70;2.20;;;;;;;15.91;73.21;99940.86;109482;1253;60934;-64
2023/10/04 12:55:57;;;;;;;7.90;1.90;;;;;;;15.64;73.43;99940.27;109510;1254;73112;-65
2023/10/04 12:58:47;;;;;;;9.10;2.00;;;;;;;15.47;74.60;99955.05;109469;1254;66700;-64
2023/10/04 13:01:36;;;;;;;10.50;2.30;;;;;;;15.31;75.22;99956.25;109380;1253;71261;-65
2023/10/04 13:04:24;;;;;;;9.70;2.30;;;;;;;15.08;76.08;99955.73;109288;1252;244272;-66